createdAt,value
2024-02-04T00:02:27.602Z,65.93
2024-02-04T00:04:56.543Z,67.88
2024-02-04T00:07:24.749Z,64.60
2024-02-04T00:09:52.610Z,65.38
2024-02-04T00:12:20.357Z,69.50
2024-02-04T00:14:50.799Z,70.43
2024-02-04T00:17:18.898Z,73.82
2024-02-04T00:19:47.056Z,71.30
2024-02-04T00:22:19.707Z,71.20
2024-02-04T00:24:47.380Z,70.15
2024-02-04T00:27:15.674Z,71.00
2024-02-04T00:29:43.296Z,67.80
2024-02-04T00:32:10.898Z,70.03
2024-02-04T00:34:38.728Z,69.28
2024-02-04T00:37:07.233Z,69.70
2024-02-04T00:39:35.131Z,68.18
2024-02-04T00:42:02.753Z,67.15
2024-02-04T00:44:30.404Z,71.25
2024-02-04T00:46:58.037Z,70.50
2024-02-04T00:49:27.723Z,70.75
2024-02-04T00:51:55.810Z,73.22
2024-02-04T00:54:23.478Z,72.13
2024-02-04T00:56:51.284Z,70.75
2024-02-04T00:59:18.904Z,71.85
2024-02-04T01:01:47.032Z,73.72
2024-02-04T01:04:14.789Z,70.63
2024-02-04T01:06:51.415Z,67.80
2024-02-04T01:09:29.019Z,72.63
2024-02-04T01:11:56.745Z,69.15
2024-02-04T01:14:24.425Z,71.63
2024-02-04T01:16:52.024Z,72.53
2024-02-04T01:19:19.819Z,71.28
2024-02-04T01:21:48.054Z,69.50
2024-02-04T01:24:15.770Z,72.97
2024-02-04T01:26:43.976Z,68.85
2024-02-04T01:29:12.069Z,70.40
2024-02-04T01:31:39.674Z,66.45
2024-02-04T01:34:07.397Z,71.57
2024-02-04T01:36:35.106Z,70.70
2024-02-04T01:39:03.616Z,72.95
2024-02-04T01:41:31.883Z,72.60
2024-02-04T01:43:59.532Z,70.53
2024-02-04T01:46:27.294Z,74.75
2024-02-04T01:48:55.548Z,72.57
2024-02-04T01:51:24.153Z,72.28
2024-02-04T01:53:54.843Z,73.13
2024-02-04T01:56:23.047Z,70.68
2024-02-04T01:58:50.973Z,75.15
2024-02-04T02:01:18.990Z,73.78
2024-02-04T02:03:47.440Z,74.25
2024-02-04T02:06:16.477Z,80.47
2024-02-04T02:08:44.845Z,75.10
2024-02-04T02:11:29.007Z,77.18
2024-02-04T02:14:04.212Z,77.53
2024-02-04T02:16:34.244Z,76.72
2024-02-04T02:19:48.800Z,77.00
2024-02-04T02:22:27.884Z,76.07
2024-02-04T02:24:58.582Z,76.82
2024-02-04T02:27:26.650Z,76.15
2024-02-04T02:29:54.437Z,76.72
2024-02-04T02:32:22.354Z,75.20
2024-02-04T02:34:50.647Z,75.47
2024-02-04T02:37:37.523Z,77.43
2024-02-04T02:40:08.341Z,72.72
2024-02-04T02:42:38.653Z,71.65
2024-02-04T02:45:08.145Z,75.18
2024-02-04T02:47:37.998Z,69.97
2024-02-04T02:50:07.438Z,70.78
2024-02-04T02:52:35.190Z,68.07
2024-02-04T02:55:02.838Z,69.13
2024-02-04T02:57:30.529Z,69.55
2024-02-04T02:59:58.387Z,74.15
2024-02-04T03:02:26.294Z,68.70
2024-02-04T03:04:53.996Z,73.18
2024-02-04T03:07:22.191Z,70.57
2024-02-04T03:09:50.147Z,70.40
2024-02-04T03:12:18.263Z,69.63
2024-02-04T03:14:45.852Z,69.25
2024-02-04T03:17:14.571Z,70.07
2024-02-04T03:19:42.193Z,74.07
2024-02-04T03:22:09.805Z,71.03
2024-02-04T03:24:38.200Z,72.65
2024-02-04T03:27:05.956Z,72.55
2024-02-04T03:29:33.693Z,71.93
2024-02-04T03:32:01.493Z,74.25
2024-02-04T03:34:29.313Z,74.15
2024-02-04T03:36:57.293Z,72.88
2024-02-04T03:39:25.048Z,73.35
2024-02-04T03:41:52.673Z,74.90
2024-02-04T03:44:20.807Z,73.47
2024-02-04T03:46:50.056Z,71.55
2024-02-04T03:49:19.527Z,72.43
2024-02-04T03:51:48.788Z,75.60
2024-02-04T03:54:16.516Z,78.75
2024-02-04T03:56:44.167Z,74.75
2024-02-04T03:59:12.279Z,73.53
2024-02-04T04:01:40.002Z,73.38
2024-02-04T04:04:08.310Z,73.65
2024-02-04T04:06:36.033Z,73.50
2024-02-04T04:09:03.880Z,74.25
2024-02-04T04:11:31.470Z,75.03
2024-02-04T04:13:59.217Z,75.28
2024-02-04T04:16:26.785Z,69.78
2024-02-04T04:18:54.530Z,72.88
2024-02-04T04:21:22.289Z,74.90
2024-02-04T04:23:49.988Z,73.55
2024-02-04T04:26:17.644Z,73.65
2024-02-04T04:28:46.108Z,71.85
2024-02-04T04:31:13.804Z,71.82
2024-02-04T04:33:42.145Z,70.43
2024-02-04T04:36:09.802Z,71.28
2024-02-04T04:38:37.435Z,74.50
2024-02-04T04:41:05.705Z,73.75
2024-02-04T04:43:34.483Z,70.43
2024-02-04T04:46:02.944Z,73.82
2024-02-04T04:48:31.339Z,73.28
2024-02-04T04:51:00.284Z,72.78
2024-02-04T04:53:27.989Z,72.00
2024-02-04T04:55:55.598Z,71.13
2024-02-04T04:58:23.283Z,69.05
2024-02-04T05:00:51.095Z,66.28
2024-02-04T05:03:18.883Z,70.45
2024-02-04T05:05:46.574Z,70.25
2024-02-04T05:08:16.698Z,69.85
2024-02-04T05:10:44.464Z,67.75
2024-02-04T05:13:13.100Z,72.47
2024-02-04T05:15:40.677Z,72.18
2024-02-04T05:18:08.349Z,71.80
2024-02-04T05:20:36.408Z,74.03
2024-02-04T05:23:04.152Z,74.65
2024-02-04T05:25:32.556Z,75.90
2024-02-04T05:28:00.175Z,77.45
2024-02-04T05:30:27.896Z,74.90
2024-02-04T05:32:56.665Z,73.70
2024-02-04T05:35:25.005Z,75.47
2024-02-04T05:37:52.624Z,69.32
2024-02-04T05:40:21.835Z,74.80
2024-02-04T05:42:50.159Z,70.68
2024-02-04T05:45:17.788Z,70.65
2024-02-04T05:47:45.956Z,72.45
2024-02-04T05:50:14.055Z,72.20
2024-02-04T05:52:41.734Z,71.50
2024-02-04T05:55:11.831Z,76.30
2024-02-04T05:57:39.463Z,73.80
2024-02-04T06:00:09.313Z,70.80
2024-02-04T06:02:37.917Z,70.13
2024-02-04T06:05:05.899Z,75.68
2024-02-04T06:07:33.431Z,73.38
2024-02-04T06:10:02.478Z,74.43
2024-02-04T06:12:31.024Z,76.05
2024-02-04T06:14:58.710Z,73.25
2024-02-04T06:17:26.371Z,74.15
2024-02-04T06:19:54.993Z,73.80
2024-02-04T06:22:22.695Z,72.57
2024-02-04T06:24:51.412Z,72.47
2024-02-04T06:27:19.053Z,70.85
2024-02-04T06:29:46.587Z,69.47
2024-02-04T06:32:14.594Z,71.95
2024-02-04T06:34:42.298Z,70.25
2024-02-04T06:37:09.970Z,72.90
2024-02-04T06:39:37.614Z,73.13
2024-02-04T06:42:05.639Z,69.78
2024-02-04T06:44:34.383Z,73.32
2024-02-04T06:47:03.373Z,73.63
2024-02-04T06:49:31.069Z,72.40
2024-02-04T06:51:59.009Z,73.43
2024-02-04T06:54:26.828Z,71.55
2024-02-04T06:56:55.280Z,73.15
2024-02-04T06:59:23.030Z,74.00
2024-02-04T07:01:51.350Z,75.20
2024-02-04T07:04:19.783Z,71.93
2024-02-04T07:06:47.924Z,73.28
2024-02-04T07:09:17.519Z,73.57
2024-02-04T07:11:45.730Z,71.28
2024-02-04T07:14:13.487Z,75.32
2024-02-04T07:16:41.246Z,72.18
2024-02-04T07:19:08.892Z,70.45
2024-02-04T07:21:37.002Z,70.85
2024-02-04T07:24:04.932Z,74.97
2024-02-04T07:26:32.570Z,74.15
2024-02-04T07:29:00.214Z,74.05
2024-02-04T07:31:27.826Z,69.50
2024-02-04T07:33:56.953Z,75.80
2024-02-04T07:36:24.632Z,75.05
2024-02-04T07:38:55.369Z,76.85
2024-02-04T07:41:24.272Z,78.30
2024-02-04T07:43:51.917Z,74.43
2024-02-04T07:46:19.656Z,77.50
2024-02-04T07:48:47.557Z,75.20
2024-02-04T07:51:15.341Z,79.15
2024-02-04T07:53:42.930Z,77.68
2024-02-04T07:56:12.066Z,75.10
2024-02-04T07:58:40.202Z,80.10
2024-02-04T08:01:08.376Z,82.45
2024-02-04T08:03:36.120Z,77.25
2024-02-04T08:06:03.938Z,80.68
2024-02-04T08:08:31.544Z,77.90
2024-02-04T08:11:01.454Z,78.13
2024-02-04T08:13:29.922Z,80.03
2024-02-04T08:15:57.939Z,76.93
2024-02-04T08:18:25.634Z,78.28
2024-02-04T08:20:54.251Z,78.13
2024-02-04T08:23:22.339Z,81.65
2024-02-04T08:25:51.249Z,80.95
2024-02-04T08:28:18.966Z,79.95
2024-02-04T08:30:46.650Z,72.28
2024-02-04T08:33:14.963Z,79.13
2024-02-04T08:35:42.871Z,78.47
2024-02-04T08:38:11.434Z,77.88
2024-02-04T08:40:39.089Z,79.35
2024-02-04T08:43:06.883Z,78.63
2024-02-04T08:45:34.662Z,78.85
2024-02-04T08:48:02.359Z,79.07
2024-02-04T08:50:30.748Z,75.93
2024-02-04T08:52:58.813Z,81.25
2024-02-04T08:55:26.887Z,79.47
2024-02-04T08:57:54.679Z,76.85
2024-02-04T09:00:22.893Z,75.85
2024-02-04T09:02:50.696Z,81.10
2024-02-04T09:05:19.396Z,78.80
2024-02-04T09:07:47.430Z,77.57
2024-02-04T09:10:15.384Z,78.72
2024-02-04T09:12:43.450Z,77.90
2024-02-04T09:15:11.388Z,79.57
2024-02-04T09:17:39.151Z,76.28
2024-02-04T09:20:09.201Z,73.22
2024-02-04T09:22:37.817Z,74.20
2024-02-04T09:25:06.506Z,73.85
2024-02-04T09:27:34.726Z,71.20
2024-02-04T09:30:02.605Z,72.63
2024-02-04T09:32:30.640Z,67.82
2024-02-04T09:34:58.608Z,66.95
2024-02-04T09:37:26.813Z,65.95
2024-02-04T09:39:55.446Z,63.17
2024-02-04T09:42:24.451Z,59.78
2024-02-04T09:44:52.866Z,65.90
2024-02-04T09:47:22.031Z,63.13
2024-02-04T09:49:50.377Z,62.92
2024-02-04T09:52:23.518Z,64.70
2024-02-04T09:55:02.099Z,68.07
2024-02-04T09:57:35.384Z,66.82
2024-02-04T10:00:06.836Z,64.80
2024-02-04T10:02:40.738Z,66.60
2024-02-04T10:05:10.558Z,68.20
2024-02-04T10:07:38.993Z,71.32
2024-02-04T10:10:08.281Z,75.15
2024-02-04T10:12:39.173Z,72.82
2024-02-04T10:15:08.938Z,70.97
2024-02-04T10:17:36.603Z,70.38
2024-02-04T10:20:04.743Z,69.68
2024-02-04T10:22:32.729Z,71.68
2024-02-04T10:25:08.541Z,77.88
2024-02-04T10:27:37.942Z,75.35
2024-02-04T10:30:07.889Z,80.75
2024-02-04T10:32:36.086Z,85.20
2024-02-04T10:35:04.309Z,84.47
2024-02-04T10:37:32.150Z,86.80
2024-02-04T10:40:00.107Z,85.75
2024-02-04T10:42:30.217Z,87.72
2024-02-04T10:45:00.220Z,85.93
2024-02-04T10:47:34.672Z,86.45
2024-02-04T10:50:05.239Z,82.88
2024-02-04T10:52:38.973Z,84.35
2024-02-04T10:55:09.950Z,89.47
2024-02-04T10:57:39.775Z,89.35
2024-02-04T11:00:13.022Z,91.35
2024-02-04T11:02:44.248Z,93.80
2024-02-04T11:05:12.350Z,95.40
2024-02-04T11:07:40.435Z,95.10
2024-02-04T11:10:09.031Z,96.53
2024-02-04T11:12:39.422Z,99.00
2024-02-04T11:15:10.259Z,98.55
2024-02-04T11:17:59.308Z,100.15
2024-02-04T11:20:30.976Z,99.70
2024-02-04T11:22:59.777Z,100.97
2024-02-04T11:25:44.555Z,101.32
2024-02-04T11:28:13.935Z,99.32
2024-02-04T11:30:45.057Z,99.70
2024-02-04T11:33:15.407Z,97.60
2024-02-04T11:35:43.721Z,104.05
2024-02-04T11:38:12.458Z,99.43
2024-02-04T11:40:41.126Z,97.95
2024-02-04T11:43:12.702Z,100.25
2024-02-04T11:45:44.076Z,102.78
2024-02-04T11:48:12.831Z,98.35
2024-02-04T11:50:43.931Z,100.45
2024-02-04T11:53:13.732Z,101.88
2024-02-04T11:55:45.377Z,103.60
2024-02-04T11:58:14.680Z,98.93
2024-02-04T12:00:47.131Z,101.35
2024-02-04T12:03:14.966Z,97.55
2024-02-04T12:05:44.183Z,108.20
2024-02-04T12:08:13.336Z,95.97
2024-02-04T12:10:44.884Z,118.30
2024-02-04T12:13:14.014Z,94.63
2024-02-04T12:15:42.718Z,95.28
2024-02-04T12:18:11.953Z,98.00
2024-02-04T12:20:40.741Z,97.45
2024-02-04T12:23:09.195Z,98.07
2024-02-04T12:25:42.422Z,97.00
2024-02-04T12:28:12.805Z,94.40
2024-02-04T12:30:40.591Z,94.72
2024-02-04T12:33:08.531Z,95.18
2024-02-04T12:35:36.838Z,94.97
2024-02-04T12:38:11.922Z,95.63
2024-02-04T12:40:39.513Z,96.53
2024-02-04T12:43:08.061Z,94.40
2024-02-04T12:45:35.872Z,94.85
2024-02-04T12:48:04.237Z,99.38
2024-02-04T12:50:34.628Z,96.40
2024-02-04T12:53:14.226Z,98.90
2024-02-04T12:55:44.148Z,100.60
2024-02-04T12:58:15.809Z,100.10
2024-02-04T13:00:44.071Z,99.07
2024-02-04T13:03:12.442Z,97.05
2024-02-04T13:05:40.380Z,98.55
2024-02-04T13:08:09.201Z,102.53
2024-02-04T13:10:38.015Z,97.95
2024-02-04T13:13:09.728Z,98.95
2024-02-04T13:15:42.636Z,99.35
2024-02-04T13:18:12.676Z,95.75
2024-02-04T13:20:41.889Z,104.95
2024-02-04T13:23:11.311Z,99.55
2024-02-04T13:25:39.797Z,100.97
2024-02-04T13:28:08.659Z,101.68
2024-02-04T13:30:37.078Z,104.57
2024-02-04T13:33:06.981Z,99.53
2024-02-04T13:35:37.588Z,103.53
2024-02-04T13:38:06.651Z,104.53
2024-02-04T13:40:34.705Z,104.95
2024-02-04T13:43:02.827Z,103.05
2024-02-04T13:45:30.498Z,104.30
2024-02-04T13:47:58.227Z,106.10
2024-02-04T13:50:26.030Z,106.03
2024-02-04T13:52:53.628Z,104.53
2024-02-04T13:55:22.285Z,104.22
2024-02-04T13:57:50.902Z,103.75
2024-02-04T14:00:18.990Z,106.00
2024-02-04T14:02:47.009Z,107.40
2024-02-04T14:05:14.757Z,105.78
2024-02-04T14:07:42.916Z,107.60
2024-02-04T14:10:13.014Z,108.43
2024-02-04T14:12:46.735Z,110.90
2024-02-04T14:17:43.364Z,109.78
2024-02-04T14:20:11.411Z,110.57
2024-02-04T14:22:39.019Z,110.70
2024-02-04T14:25:07.488Z,109.40
2024-02-04T14:27:35.082Z,112.40
2024-02-04T14:30:02.909Z,112.75
2024-02-04T14:32:32.468Z,111.35
2024-02-04T14:35:00.979Z,113.68
2024-02-04T14:37:29.303Z,113.07
2024-02-04T14:39:57.143Z,110.95
2024-02-04T14:42:25.214Z,111.60
2024-02-04T14:44:52.873Z,111.55
2024-02-04T14:47:20.940Z,116.05
2024-02-04T14:49:50.150Z,110.35
2024-02-04T14:52:19.158Z,110.18
2024-02-04T14:54:46.993Z,112.03
2024-02-04T14:57:15.174Z,113.22
2024-02-04T14:59:44.304Z,115.50
2024-02-04T15:02:12.112Z,114.95
2024-02-04T15:04:41.090Z,116.18
2024-02-04T15:07:09.569Z,112.25
2024-02-04T15:09:37.796Z,114.80
2024-02-04T15:12:06.247Z,111.97
2024-02-04T15:14:34.165Z,115.47
2024-02-04T15:17:03.293Z,117.55
2024-02-04T15:19:37.347Z,121.63
2024-02-04T15:22:06.152Z,118.72
2024-02-04T15:24:34.927Z,118.60
2024-02-04T15:27:06.301Z,121.40
2024-02-04T15:29:36.973Z,119.57
2024-02-04T15:32:08.043Z,118.07
2024-02-04T15:34:37.246Z,119.22
2024-02-04T15:37:05.377Z,123.28
2024-02-04T15:39:34.895Z,121.63
2024-02-04T15:42:02.545Z,120.32
2024-02-04T15:44:30.113Z,123.00
2024-02-04T15:47:00.152Z,122.10
2024-02-04T15:49:29.468Z,120.35
2024-02-04T15:51:57.779Z,120.80
2024-02-04T15:54:25.806Z,121.90
2024-02-04T15:57:04.023Z,124.15
2024-02-04T15:59:51.554Z,124.07
2024-02-04T16:02:19.532Z,124.72
2024-02-04T16:04:47.241Z,122.30
2024-02-04T16:07:16.399Z,125.55
2024-02-04T16:09:49.231Z,125.05
2024-02-04T16:12:22.006Z,127.40
2024-02-04T16:14:51.760Z,124.13
2024-02-04T16:17:21.475Z,123.75
2024-02-04T16:19:51.090Z,123.70
2024-02-04T16:22:20.651Z,128.98
2024-02-04T16:24:48.492Z,129.77
2024-02-04T16:27:16.281Z,127.25
2024-02-04T16:29:43.896Z,130.32
2024-02-04T16:32:15.530Z,132.15
2024-02-04T16:34:43.540Z,139.23
2024-02-04T16:37:11.819Z,136.40
2024-02-04T16:39:40.181Z,131.95
2024-02-04T16:42:10.033Z,132.50
2024-02-04T16:44:37.866Z,127.80
2024-02-04T16:47:06.149Z,132.40
2024-02-04T16:49:34.313Z,131.60
2024-02-04T16:52:02.880Z,136.98
2024-02-04T16:54:30.757Z,130.95
2024-02-04T16:56:59.354Z,128.70
2024-02-04T16:59:27.401Z,131.48
2024-02-04T17:01:55.699Z,130.60
2024-02-04T17:04:24.138Z,134.73
2024-02-04T17:06:52.265Z,131.38
2024-02-04T17:09:20.729Z,126.10
2024-02-04T17:11:48.820Z,127.47
2024-02-04T17:14:18.529Z,124.85
2024-02-04T17:17:12.604Z,124.72
2024-02-04T17:19:45.268Z,130.00
2024-02-04T17:22:19.357Z,133.15
2024-02-04T17:24:51.661Z,130.75
2024-02-04T17:27:20.166Z,131.52
2024-02-04T17:29:53.752Z,133.77
2024-02-04T17:32:26.796Z,130.18
2024-02-04T17:34:55.537Z,128.43
2024-02-04T17:37:23.415Z,131.95
2024-02-04T17:39:51.282Z,133.10
2024-02-04T17:42:19.200Z,135.57
2024-02-04T17:44:47.921Z,130.05
2024-02-04T17:47:16.360Z,130.70
2024-02-04T17:49:44.359Z,129.07
2024-02-04T17:52:12.050Z,132.45
2024-02-04T17:54:40.635Z,130.82
2024-02-04T17:57:10.339Z,130.45
2024-02-04T17:59:38.021Z,134.15
2024-02-04T18:02:06.434Z,131.57
2024-02-04T18:04:35.547Z,127.90
2024-02-04T18:07:04.455Z,133.10
2024-02-04T18:09:34.809Z,135.30
2024-02-04T18:12:02.460Z,134.77
2024-02-04T18:14:30.457Z,132.18
2024-02-04T18:16:58.162Z,135.27
2024-02-04T18:19:25.966Z,137.75
2024-02-04T18:21:53.752Z,134.65
2024-02-04T18:24:21.814Z,133.85
2024-02-04T18:26:49.890Z,138.63
2024-02-04T18:29:18.033Z,134.43
2024-02-04T18:31:49.660Z,131.85
2024-02-04T18:34:17.342Z,132.55
2024-02-04T18:36:45.180Z,131.75
2024-02-04T18:39:14.779Z,133.07
2024-02-04T18:41:46.645Z,136.43
2024-02-04T18:44:16.468Z,140.50
2024-02-04T18:46:44.670Z,129.93
2024-02-04T18:49:12.740Z,138.57
2024-02-04T18:51:47.471Z,138.35
2024-02-04T18:54:15.387Z,131.38
2024-02-04T18:56:48.204Z,136.38
2024-02-04T18:59:15.831Z,140.57
2024-02-04T19:01:45.377Z,140.20
2024-02-04T19:04:13.200Z,141.23
2024-02-04T19:06:49.219Z,142.88
2024-02-04T19:09:17.307Z,142.65
2024-02-04T19:11:45.596Z,139.68
2024-02-04T19:14:13.962Z,146.85
2024-02-04T19:16:42.184Z,140.38
2024-02-04T19:19:11.799Z,141.05
2024-02-04T19:21:47.204Z,141.27
2024-02-04T19:24:19.612Z,146.38
2024-02-04T19:26:49.210Z,140.27
2024-02-04T19:29:18.025Z,138.10
2024-02-04T19:31:46.676Z,139.02
2024-02-04T19:34:14.516Z,140.27
2024-02-04T19:36:44.661Z,139.13
2024-02-04T19:39:14.529Z,130.48
2024-02-04T19:41:44.682Z,135.82
2024-02-04T19:44:13.265Z,131.15
2024-02-04T19:46:40.909Z,137.82
2024-02-04T19:49:08.678Z,135.38
2024-02-04T19:51:36.889Z,134.70
2024-02-04T19:54:04.661Z,134.82
2024-02-04T19:56:32.923Z,131.10
2024-02-04T19:59:04.894Z,134.07
2024-02-04T20:01:36.131Z,139.27
2024-02-04T20:04:05.180Z,135.25
2024-02-04T20:06:33.446Z,132.55
2024-02-04T20:09:01.101Z,137.38
2024-02-04T20:11:33.396Z,136.75
2024-02-04T20:14:05.069Z,139.05
2024-02-04T20:16:32.977Z,137.52
2024-02-04T20:19:03.893Z,136.35
2024-02-04T20:21:33.921Z,137.73
2024-02-04T20:24:02.344Z,142.82
2024-02-04T20:26:30.670Z,137.43
2024-02-04T20:28:58.330Z,135.60
2024-02-04T20:31:26.146Z,136.75
2024-02-04T20:33:54.707Z,134.70
2024-02-04T20:36:23.333Z,140.57
2024-02-04T20:38:51.900Z,139.45
2024-02-04T20:41:19.729Z,136.50
2024-02-04T20:43:49.214Z,143.13
2024-02-04T20:46:16.868Z,138.93
2024-02-04T20:48:46.285Z,133.77
2024-02-04T20:51:14.182Z,140.63
2024-02-04T20:53:42.855Z,141.63
2024-02-04T20:56:10.785Z,140.95
2024-02-04T20:58:39.708Z,140.10
2024-02-04T21:01:08.135Z,136.20
2024-02-04T21:03:36.959Z,136.93
2024-02-04T21:06:05.476Z,139.32
2024-02-04T21:08:33.119Z,135.40
2024-02-04T21:11:01.988Z,139.95
2024-02-04T21:13:29.945Z,141.13
2024-02-04T21:15:57.583Z,138.75
2024-02-04T21:18:25.522Z,140.13
2024-02-04T21:20:53.258Z,139.85
2024-02-04T21:23:21.414Z,140.05
2024-02-04T21:25:50.890Z,135.98
2024-02-04T21:28:19.016Z,135.32
2024-02-04T21:30:46.677Z,137.23
2024-02-04T21:33:14.401Z,136.55
2024-02-04T21:35:42.565Z,136.25
2024-02-04T21:38:11.159Z,131.75
2024-02-04T21:40:46.692Z,132.63
2024-02-04T21:43:14.547Z,134.73
2024-02-04T21:45:42.273Z,138.73
2024-02-04T21:48:10.527Z,137.27
2024-02-04T21:50:41.650Z,133.85
2024-02-04T21:53:11.216Z,141.52
2024-02-04T21:55:38.899Z,138.73
2024-02-04T21:58:06.555Z,133.40
2024-02-04T22:00:35.954Z,141.60
2024-02-04T22:03:05.639Z,133.48
2024-02-04T22:05:35.649Z,141.93
2024-02-04T22:08:05.262Z,140.00
2024-02-04T22:10:32.893Z,142.93
2024-02-04T22:13:00.718Z,143.75
2024-02-04T22:15:28.389Z,140.50
2024-02-04T22:17:58.179Z,142.18
2024-02-04T22:20:28.230Z,146.57
2024-02-04T22:22:55.917Z,142.80
2024-02-04T22:25:30.595Z,140.52
2024-02-04T22:28:00.014Z,138.98
2024-02-04T22:30:28.390Z,137.90
2024-02-04T22:32:56.189Z,140.00
2024-02-04T22:35:26.105Z,137.32
2024-02-04T22:37:55.111Z,141.60
2024-02-04T22:40:25.347Z,139.02
2024-02-04T22:42:53.288Z,142.98
2024-02-04T22:45:21.219Z,143.20
2024-02-04T22:47:49.299Z,144.65
2024-02-04T22:50:18.853Z,138.13
2024-02-04T22:52:46.585Z,142.43
2024-02-04T22:55:14.300Z,140.00
2024-02-04T22:57:42.148Z,139.85
2024-02-04T23:00:14.462Z,141.02
2024-02-04T23:02:42.641Z,139.75
2024-02-04T23:05:11.060Z,141.23
2024-02-04T23:07:47.549Z,138.90
2024-02-04T23:10:19.984Z,140.48
2024-02-04T23:12:48.938Z,138.38
2024-02-04T23:15:17.836Z,137.13
2024-02-04T23:17:46.226Z,138.52
2024-02-04T23:20:14.022Z,138.73
2024-02-04T23:22:41.657Z,138.82
2024-02-04T23:25:09.885Z,141.50
2024-02-04T23:27:37.642Z,136.82
2024-02-04T23:30:07.103Z,142.15
2024-02-04T23:32:34.847Z,140.50
2024-02-04T23:35:02.655Z,139.10
2024-02-04T23:37:30.459Z,135.70
2024-02-04T23:39:58.199Z,134.27
2024-02-04T23:42:25.857Z,138.80
2024-02-04T23:44:53.556Z,141.77
2024-02-04T23:47:22.275Z,137.55
2024-02-04T23:49:49.995Z,135.18
2024-02-04T23:52:18.359Z,139.15
2024-02-04T23:54:46.535Z,138.18
2024-02-04T23:57:14.282Z,136.98
2024-02-04T23:59:41.850Z,134.57
